• Join FlightAware (Why Join?)
  • Login
  • US Flag 
09:38AM EDT


 

Airport Tracker/Info


-or-


 

Live Flight TrackerFlight Track Log ✈ SWA554 ✈ 11-Apr-2013 ✈ KMKE - KBWI

Flight Track Log - Related Links

Times and Time Zones

All times are in EDT time to prevent confusion due to time zone crossing. See the SWA554 flight status page for this flight to view local times or setup timezone preferences in your user account.

Time Position Orientation Groundspeed Altitude Reporting Facility
EDT Latitude Longitude Course Direction KTS MPH feet Rate Location/Type
02:44PM 42.9500 -87.8500 90° East 163 188 2,900  Level KMKE
02:45PM 42.9261 -87.8594 196° South 219 252 4,300 1,980 Climbing Chicago Center
02:46PM 42.8822 -87.9114 221° Southwest 207 238 6,000 840 Climbing Chicago Center
02:47PM 42.8192 -87.9864 221° Southwest 246 283 6,100 1,860 Climbing Chicago Center
02:48PM 42.7658 -88.0494 221° Southwest 251 289 9,900 3,120 Climbing Chicago Center
02:49PM 42.6944 -88.0653 189° South 264 304 12,600 2,220 Climbing Chicago Center
02:50PM 42.6156 -88.0811 188° South 281 323 14,500 2,340 Climbing Chicago Center
02:51PM 42.5281 -88.0453 163° South 326 375 17,500 2,820 Climbing Chicago Center
02:52PM 42.4497 -87.9631 142° Southeast 353 406 20,400 2,820 Climbing Chicago Center
02:53PM 42.3525 -87.8581 141° Southeast 380 437 23,400 2,760 Climbing Chicago Center
02:54PM 42.2664 -87.7669 142° Southeast 389 448 26,200 2,700 Climbing Chicago Center
02:55PM 42.1828 -87.6764 141° Southeast 385 443 29,000 2,280 Climbing Chicago Center
02:56PM 42.1011 -87.5911 142° Southeast 375 432 31,000 1,740 Climbing Chicago Center
02:57PM 42.0169 -87.5028 142° Southeast 381 438 32,700 1,500 Climbing Chicago Center
02:58PM 41.9767 -87.3503 110° East 446 513 34,200 1,320 Climbing Chicago Center
02:59PM 41.9750 -87.1692 91° East 483 556 35,500 1,320 Climbing Chicago Center
03:00PM 41.9706 -86.9506 91° East 487 560 37,000 720 Climbing Chicago Center
03:01PM 41.9675 -86.7683 91° East 488 562 37,000  Level Chicago Center
03:02PM 41.9639 -86.6094 92° East 488 562 37,000 600 Level Chicago Center
03:03PM 41.9606 -86.3919 91° East 487 560 38,300 960 Climbing Chicago Center
03:04PM 41.9533 -86.2086 93° East 489 563 39,000 300 Climbing Chicago Center
03:05PM 41.9208 -86.0367 104° East 476 548 39,000  Level Chicago Center
03:06PM 41.8944 -85.8611 101° East 482 555 39,000  Level Chicago Center
03:07PM 41.8711 -85.6822 100° East 485 558 39,000  Level Chicago Center
03:08PM 41.8486 -85.5019 99° East 484 557 39,000  Level Chicago Center
03:09PM 41.8244 -85.3206 100° East 486 559 39,000  Level Chicago Center
03:10PM 41.8006 -85.1411 100° East 483 556 39,000  Level Chicago Center
03:11PM 41.7772 -84.9639 100° East 482 555 39,000  Level Chicago Center
03:12PM 41.7483 -84.7517 100° East 482 555 39,000  Level Chicago Center
03:13PM 41.7228 -84.5742 101° East 486 559 39,000  Level Chicago Center
03:14PM 41.6972 -84.3975 101° East 486 559 39,000  Level Chicago Center
03:15PM 41.6731 -84.2214 100° East 484 557 39,000  Level Chicago Center
03:16PM 41.6411 -84.0342 103° East 478 550 39,000  Level Cleveland Center
03:17PM 41.6172 -83.8581 100° East 478 550 39,000  Level Cleveland Center
03:18PM 41.5906 -83.6844 102° East 478 550 39,000  Level Cleveland Center
03:19PM 41.5450 -83.5186 110° East 478 550 39,000  Level Cleveland Center
03:20PM 41.4733 -83.3878 126° Southeast 449 517 39,000  Level Cleveland Center
03:21PM 41.3972 -83.2544 127° Southeast 449 517 39,000  Level Cleveland Center
03:22PM 41.3333 -83.1328 125° Southeast 449 517 39,000  Level Cleveland Center
03:23PM 41.2608 -83.0058 127° Southeast 443 510 39,000  Level Cleveland Center
03:24PM 41.1886 -82.8706 125° Southeast 443 510 39,000  Level Cleveland Center
03:25PM 41.1103 -82.7272 126° Southeast 438 504 39,000  Level Cleveland Center
03:26PM 41.0353 -82.6008 128° Southeast 443 510 39,000  Level Cleveland Center
03:27PM 40.9644 -82.4722 126° Southeast 438 504 39,000  Level Cleveland Center
03:30PM 40.7869 -82.1519 126° Southeast 440 506 39,000  Level Indianapolis Center
03:31PM 40.7139 -82.0222 127° Southeast 440 506 39,000  Level Indianapolis Center
03:32PM 40.6408 -81.8939 127° Southeast 438 504 39,000  Level Indianapolis Center
03:33PM 40.5633 -81.7611 128° Southeast 437 503 39,000  Level Cleveland Center
03:34PM 40.4897 -81.6342 127° Southeast 442 509 39,000  Level Cleveland Center
03:35PM 40.4178 -81.5075 127° Southeast 441 507 39,000  Level Cleveland Center
03:36PM 40.3458 -81.3786 126° Southeast 435 501 39,000  Level Cleveland Center
03:37PM 40.2903 -81.2364 117° Southeast 435 501 39,000  Level Cleveland Center
03:38PM 40.2475 -81.0756 109° East 442 509 39,000  Level Cleveland Center
03:39PM 40.2042 -80.9228 110° East 447 514 39,000  Level Cleveland Center
03:40PM 40.1547 -80.7461 110° East 457 526 39,000 -420 Level Cleveland Center
03:41PM 40.1089 -80.5911 111° Southeast 457 526 38,200 -900 Descending Cleveland Center
03:42PM 40.0628 -80.4311 111° Southeast 457 526 37,300 -1,200 Descending Cleveland Center
03:43PM 40.0189 -80.2742 110° East 457 526 35,900 -1,440 Descending Cleveland Center
03:44PM 39.9703 -80.1172 112° Southeast 462 532 34,500 -1,440 Descending Cleveland Center
03:45PM 39.9258 -79.9631 111° Southeast 462 532 33,100 -780 Descending Cleveland Center
03:46PM 39.8769 -79.8039 112° Southeast 462 532 33,000 -60 Descending Cleveland Center
03:47PM 39.8217 -79.6169 111° Southeast 458 527 33,000 -1,140 Level Washington Center
03:48PM 39.7744 -79.4603 111° Southeast 458 527 30,500 -2,460 Descending Washington Center
03:49PM 39.7294 -79.3097 111° Southeast 458 527 28,100 -2,340 Descending Washington Center
03:50PM 39.6839 -79.1617 112° Southeast 452 520 25,900 -1,620 Descending Washington Center
03:51PM 39.6444 -79.0086 108° East 445 512 24,900 -480 Descending Washington Center
03:52PM 39.6053 -78.8481 108° East 457 526 25,000 -840 Climbing Washington Center
03:53PM 39.5678 -78.6792 106° East 452 520 23,300 -1,920 Descending Washington Center
03:54PM 39.5381 -78.5408 106° East 440 506 21,200 -2,220 Descending Washington Center
03:55PM 39.5042 -78.3833 106° East 434 499 18,900 -2,220 Descending Washington Center
03:56PM 39.4758 -78.2533 106° East 414 476 16,800 -1,920 Descending Washington Center
03:57PM 39.4436 -78.1069 106° East 403 464 15,100 -900 Descending Washington Center
03:58PM 39.4253 -77.9853 101° East 390 449 15,100 -120 Level Washington Center
03:59PM 39.4239 -77.8456 91° East 385 443 14,900 -480 Descending Washington Center
04:00PM 39.4308 -77.6900 87° East 385 443 14,200 -840 Descending Washington Center
04:01PM 39.4369 -77.5692 86° East 380 437 13,300 -1,500 Descending Washington Center
04:02PM 39.4436 -77.4217 87° East 380 437 11,200 -1,620 Descending Washington Center
04:03PM 39.4500 -77.3500 83° East 353 406 10,900 -120 Descending Potomac TRACON
04:04PM 39.4667 -77.2333 79° East 331 381 11,100 -240 Climbing Potomac TRACON
04:05PM 39.4667 -77.1167 90° East 323 372 10,500 -900 Descending Potomac TRACON
04:06PM 39.4833 -77.0000 79° East 323 372 9,400 -1,260 Descending Potomac TRACON
04:07PM 39.4833 -76.9000 90° East 315 362 8,000 -1,500 Descending Potomac TRACON
04:08PM 39.4167 -76.8333 142° Southeast 281 323 6,400 -1,740 Descending Potomac TRACON
04:09PM 39.3500 -76.8667 201° Southwest 261 300 4,600 -1,680 Descending Potomac TRACON
04:10PM 39.2833 -76.8833 191° South 256 295 3,100 -900 Descending Potomac TRACON
04:11PM 39.2333 -76.9000 194° South 225 259 3,000 -300 Descending Potomac TRACON
04:12PM 39.1833 -76.8500 142° Southeast 168 193 2,500 -720 Descending Potomac TRACON
04:13PM 39.1833 -76.8000 90° East 150 173 1,600 -720 Descending Potomac TRACON
04:14PM 39.1833 -76.7500 90° East 135 155 1,100 -600 Descending Potomac TRACON
04:15PM 39.1833 -76.7000 90° East 127 146 500 -720 Descending Potomac TRACON
04:17PM 39.1667 -76.6667 142° Southeast  Level FlightAware Approximate
04:24PM 39.1754 -76.6683 142° Southeast  Level Estimated
04:25PM 39.1754 -76.6683 142° Southeast  Level Estimated
04:26PM 39.1754 -76.6683 142° Southeast  Level Estimated